Time;durP1;ratioP1;P1;durP2;ratioP2;P2;SDS_P1;SDS_P2;PMS_P1;PMS_P2;Temp;Humidity;BMP_temperature;BMP_pressure;BME280_temperature;BME280_humidity;BME280_pressure;Samples;Min_cycle;Max_cycle;Signal;HPM_P1;HPM_P2
2021/04/19 00:02:21;;;;;;;7.25;6.55;;;;;;;;;;5087148;28;20221;-82
2021/04/19 00:04:48;;;;;;;9.23;6.93;;;;;;;;;;5081919;28;20270;-82
2021/04/19 00:07:16;;;;;;;8.50;6.40;;;;;;;;;;5080459;28;20696;-82
2021/04/19 00:09:43;;;;;;;7.65;6.95;;;;;;;;;;5088069;28;20200;-82
2021/04/19 00:12:10;;;;;;;7.47;6.57;;;;;;;;;;5096152;28;20621;-83
2021/04/19 00:14:37;;;;;;;6.10;5.38;;;;;;;;;;5092353;28;20224;-82
2021/04/19 00:17:05;;;;;;;6.25;5.60;;;;;;;;;;5092081;28;20611;-82
2021/04/19 00:19:32;;;;;;;6.13;5.55;;;;;;;;;;5093267;28;20246;-82
2021/04/19 00:21:59;;;;;;;6.50;5.90;;;;;;;;;;5094332;28;20274;-82
2021/04/19 00:24:26;;;;;;;5.88;5.28;;;;;;;;;;5093903;28;20238;-82
2021/04/19 00:26:53;;;;;;;6.10;5.50;;;;;;;;;;5093252;28;20250;-82
2021/04/19 00:29:20;;;;;;;6.57;5.93;;;;;;;;;;5093367;28;20200;-82
2021/04/19 00:31:47;;;;;;;6.60;5.95;;;;;;;;;;5092634;28;20224;-81
2021/04/19 00:34:15;;;;;;;5.55;5.00;;;;;;;;;;5092926;28;20200;-82
2021/04/19 00:36:42;;;;;;;5.97;5.40;;;;;;;;;;5092706;28;20222;-82
2021/04/19 00:39:09;;;;;;;5.25;4.75;;;;;;;;;;5093098;28;20732;-82
2021/04/19 00:41:36;;;;;;;6.25;5.63;;;;;;;;;;5093144;28;20216;-82
2021/04/19 00:44:04;;;;;;;6.57;5.82;;;;;;;;;;5092954;28;20806;-82
2021/04/19 00:46:31;;;;;;;6.35;5.70;;;;;;;;;;5092701;28;20658;-82
2021/04/19 00:48:58;;;;;;;6.07;5.45;;;;;;;;;;5093143;28;20236;-82
2021/04/19 00:51:27;;;;;;;7.28;6.50;;;;;;;;;;5093227;28;20212;-82
2021/04/19 00:53:54;;;;;;;8.02;6.60;;;;;;;;;;5092966;28;20704;-82
2021/04/19 00:56:22;;;;;;;6.90;5.95;;;;;;;;;;5092760;28;20709;-82
2021/04/19 00:58:49;;;;;;;8.77;6.90;;;;;;;;;;5092982;28;20185;-82
2021/04/19 01:01:16;;;;;;;10.68;8.18;;;;;;;;;;5092838;28;20219;-82
2021/04/19 01:03:44;;;;;;;9.00;8.18;;;;;;;;;;5092995;28;20232;-83
2021/04/19 01:06:12;;;;;;;8.07;7.25;;;;;;;;;;5092762;28;20193;-83
2021/04/19 01:08:40;;;;;;;9.25;8.38;;;;;;;;;;5092988;28;20204;-83
2021/04/19 01:11:07;;;;;;;8.70;7.38;;;;;;;;;;5092823;28;20210;-82
2021/04/19 01:13:34;;;;;;;11.52;8.75;;;;;;;;;;5092566;28;20249;-82
2021/04/19 01:16:01;;;;;;;8.82;7.72;;;;;;;;;;5092732;28;20599;-83
2021/04/19 01:18:28;;;;;;;11.13;8.75;;;;;;;;;;5092693;28;20200;-82
2021/04/19 01:20:56;;;;;;;11.57;9.05;;;;;;;;;;5092533;28;20321;-82
2021/04/19 01:23:25;;;;;;;10.70;9.30;;;;;;;;;;5092573;28;20238;-82
2021/04/19 01:25:52;;;;;;;8.13;6.88;;;;;;;;;;5092606;28;20610;-82
2021/04/19 01:28:21;;;;;;;8.93;8.02;;;;;;;;;;5094542;28;20696;-82
2021/04/19 01:30:50;;;;;;;9.95;8.23;;;;;;;;;;5095871;28;20200;-82
2021/04/19 01:33:17;;;;;;;8.65;7.00;;;;;;;;;;5096035;28;20260;-83
2021/04/19 01:35:45;;;;;;;11.23;7.85;;;;;;;;;;5096396;28;20204;-82
2021/04/19 01:38:15;;;;;;;10.90;8.68;;;;;;;;;;5096320;28;20180;-82
2021/04/19 01:40:42;;;;;;;9.10;7.60;;;;;;;;;;5096447;28;20686;-83
2021/04/19 01:43:12;;;;;;;10.15;7.75;;;;;;;;;;5095612;28;20225;-83
2021/04/19 01:45:39;;;;;;;9.30;8.40;;;;;;;;;;5094998;28;20202;-82
2021/04/19 01:48:08;;;;;;;7.95;7.13;;;;;;;;;;5096262;28;20184;-82
2021/04/19 01:50:35;;;;;;;11.95;8.27;;;;;;;;;;5095842;28;20189;-83
2021/04/19 01:53:02;;;;;;;9.55;8.02;;;;;;;;;;5095740;28;20662;-82
2021/04/19 01:55:33;;;;;;;9.48;7.95;;;;;;;;;;5095984;28;20219;-82
2021/04/19 01:58:03;;;;;;;9.80;8.77;;;;;;;;;;5095303;28;20558;-82
2021/04/19 02:00:32;;;;;;;9.55;8.57;;;;;;;;;;5095055;28;20192;-82
2021/04/19 02:03:12;;;;;;;10.13;8.30;;;;;;;;;;5095234;28;20228;-83
2021/04/19 02:05:50;;;;;;;13.45;9.82;;;;;;;;;;5095855;28;20226;-82
2021/04/19 02:08:26;;;;;;;9.73;8.43;;;;;;;;;;5095680;28;20172;-82
2021/04/19 02:11:03;;;;;;;9.65;8.65;;;;;;;;;;5096290;28;20197;-82
2021/04/19 02:13:41;;;;;;;11.45;8.07;;;;;;;;;;5095414;28;20183;-82
2021/04/19 02:16:19;;;;;;;9.43;7.47;;;;;;;;;;5094538;28;20575;-82
2021/04/19 02:18:52;;;;;;;8.52;7.57;;;;;;;;;;5094165;28;20259;-82
2021/04/19 02:21:24;;;;;;;7.63;6.82;;;;;;;;;;5094823;28;20227;-82
2021/04/19 02:23:56;;;;;;;8.60;7.82;;;;;;;;;;5095315;28;20584;-82
2021/04/19 02:26:28;;;;;;;7.75;6.50;;;;;;;;;;5095489;28;20184;-82
2021/04/19 02:29:01;;;;;;;7.30;6.57;;;;;;;;;;5095447;28;20265;-82
2021/04/19 02:31:31;;;;;;;7.78;6.60;;;;;;;;;;5095467;28;20220;-82
2021/04/19 02:34:00;;;;;;;9.07;8.27;;;;;;;;;;5095218;28;20655;-82
2021/04/19 02:36:28;;;;;;;8.57;6.68;;;;;;;;;;5094962;28;20209;-82
2021/04/19 02:38:57;;;;;;;9.43;7.63;;;;;;;;;;5095651;28;20196;-82
2021/04/19 02:41:26;;;;;;;7.80;6.40;;;;;;;;;;5094993;28;20248;-82
2021/04/19 02:43:54;;;;;;;6.68;6.03;;;;;;;;;;5095063;28;20188;-82
2021/04/19 02:46:21;;;;;;;7.78;6.97;;;;;;;;;;5094411;28;20559;-83
2021/04/19 02:48:49;;;;;;;7.57;6.88;;;;;;;;;;5094629;28;20241;-82
2021/04/19 02:51:16;;;;;;;7.43;6.72;;;;;;;;;;5094769;28;20261;-82
2021/04/19 02:53:45;;;;;;;8.65;7.78;;;;;;;;;;5095058;28;20268;-82
2021/04/19 02:56:12;;;;;;;6.53;5.68;;;;;;;;;;5094064;28;20571;-82
2021/04/19 02:58:46;;;;;;;7.30;6.47;;;;;;;;;;5094505;28;20234;-82
2021/04/19 03:01:21;;;;;;;7.53;6.43;;;;;;;;;;5094078;28;20202;-83
2021/04/19 03:03:49;;;;;;;7.05;6.18;;;;;;;;;;5094250;28;20239;-82
2021/04/19 03:06:16;;;;;;;7.05;6.35;;;;;;;;;;5094184;28;20257;-82
2021/04/19 03:08:49;;;;;;;7.93;7.13;;;;;;;;;;5094507;28;20567;-82
2021/04/19 03:11:20;;;;;;;7.70;6.65;;;;;;;;;;5094232;28;20224;-82
2021/04/19 03:13:49;;;;;;;7.70;6.95;;;;;;;;;;5094332;28;20177;-82
2021/04/19 03:16:16;;;;;;;7.65;6.95;;;;;;;;;;5094128;28;20658;-82
2021/04/19 03:18:44;;;;;;;7.65;5.90;;;;;;;;;;5094365;28;20176;-83
2021/04/19 03:21:14;;;;;;;10.65;6.85;;;;;;;;;;5094594;28;20188;-82
2021/04/19 03:23:44;;;;;;;8.75;7.70;;;;;;;;;;5093979;28;20602;-82
2021/04/19 03:26:13;;;;;;;7.10;6.50;;;;;;;;;;5093971;28;20203;-82
2021/04/19 03:28:42;;;;;;;7.18;6.47;;;;;;;;;;5093998;28;20225;-82
2021/04/19 03:31:18;;;;;;;7.93;6.95;;;;;;;;;;5094267;28;20188;-82
2021/04/19 03:33:46;;;;;;;7.18;6.38;;;;;;;;;;5094290;28;20204;-82
2021/04/19 03:36:15;;;;;;;7.38;6.57;;;;;;;;;;5093610;28;20257;-82
2021/04/19 03:38:44;;;;;;;7.07;6.00;;;;;;;;;;5094154;28;20200;-82
2021/04/19 03:41:12;;;;;;;10.52;7.60;;;;;;;;;;5093377;28;20662;-82
2021/04/19 03:43:39;;;;;;;7.90;7.10;;;;;;;;;;5093649;28;20200;-82
2021/04/19 03:46:08;;;;;;;7.80;6.65;;;;;;;;;;5093149;28;20608;-82
2021/04/19 03:48:40;;;;;;;9.52;7.90;;;;;;;;;;5093735;28;20191;-82
2021/04/19 03:51:10;;;;;;;7.80;7.05;;;;;;;;;;5093228;28;20184;-82
2021/04/19 03:53:38;;;;;;;8.32;7.43;;;;;;;;;;5094049;28;20187;-82
2021/04/19 03:56:06;;;;;;;7.10;6.40;;;;;;;;;;5093063;28;20224;-82
2021/04/19 03:58:35;;;;;;;6.40;5.80;;;;;;;;;;5092557;28;20173;-82
2021/04/19 04:01:06;;;;;;;7.70;6.75;;;;;;;;;;5093140;28;20566;-82
2021/04/19 04:03:35;;;;;;;7.00;6.30;;;;;;;;;;5093721;28;20236;-82
2021/04/19 04:06:03;;;;;;;7.97;6.50;;;;;;;;;;5093296;28;20593;-82
2021/04/19 04:08:30;;;;;;;6.38;5.78;;;;;;;;;;5093831;28;20564;-82
2021/04/19 04:10:58;;;;;;;8.25;7.13;;;;;;;;;;5094093;28;20184;-82
2021/04/19 04:13:26;;;;;;;7.63;6.82;;;;;;;;;;5093417;28;20200;-82
2021/04/19 04:15:57;;;;;;;7.80;7.00;;;;;;;;;;5093607;28;20220;-82
2021/04/19 04:18:24;;;;;;;9.52;6.85;;;;;;;;;;5093453;28;20200;-82
2021/04/19 04:20:53;;;;;;;10.13;8.15;;;;;;;;;;5093549;28;20257;-82
2021/04/19 04:23:20;;;;;;;15.45;7.72;;;;;;;;;;5093517;28;20627;-82
2021/04/19 04:25:48;;;;;;;12.77;7.90;;;;;;;;;;5093008;28;20197;-82
2021/04/19 04:28:15;;;;;;;10.38;7.38;;;;;;;;;;5094250;28;20241;-82
2021/04/19 04:30:46;;;;;;;11.40;8.70;;;;;;;;;;5093961;28;20181;-82
2021/04/19 04:33:13;;;;;;;10.05;7.50;;;;;;;;;;5092672;28;20247;-82
2021/04/19 04:35:40;;;;;;;11.13;7.38;;;;;;;;;;5093178;28;20188;-82
2021/04/19 04:38:08;;;;;;;8.15;7.20;;;;;;;;;;5093346;28;20224;-82
2021/04/19 04:40:35;;;;;;;10.32;7.47;;;;;;;;;;5096749;28;20276;-82
2021/04/19 04:43:06;;;;;;;11.75;7.72;;;;;;;;;;5094152;28;20227;-82
2021/04/19 04:45:33;;;;;;;15.15;8.10;;;;;;;;;;5093403;28;20230;-82
2021/04/19 04:48:02;;;;;;;24.02;8.00;;;;;;;;;;5093663;28;20222;-82
2021/04/19 04:50:36;;;;;;;61.40;9.48;;;;;;;;;;5094443;28;20208;-82
2021/04/19 04:53:09;;;;;;;19.75;7.72;;;;;;;;;;5093756;28;20227;-82
2021/04/19 04:55:37;;;;;;;13.05;8.15;;;;;;;;;;5093644;28;20257;-82
2021/04/19 04:58:06;;;;;;;39.13;9.82;;;;;;;;;;5093269;28;20219;-82
2021/04/19 05:00:35;;;;;;;24.77;8.60;;;;;;;;;;5093839;28;20187;-82
2021/04/19 05:03:03;;;;;;;9.10;7.45;;;;;;;;;;5095100;28;20224;-82
2021/04/19 05:05:30;;;;;;;9.23;7.22;;;;;;;;;;5097215;28;20206;-82
2021/04/19 05:07:59;;;;;;;8.65;7.10;;;;;;;;;;5097634;28;20204;-81
2021/04/19 05:10:27;;;;;;;8.20;7.40;;;;;;;;;;5097871;28;20185;-82
2021/04/19 05:12:54;;;;;;;7.10;6.40;;;;;;;;;;5097363;28;20694;-82
2021/04/19 05:15:20;;;;;;;9.75;8.63;;;;;;;;;;5096912;28;20196;-82
2021/04/19 05:17:47;;;;;;;9.27;7.28;;;;;;;;;;5097346;28;20204;-82
2021/04/19 05:20:16;;;;;;;7.68;6.95;;;;;;;;;;5097309;28;20540;-82
2021/04/19 05:22:43;;;;;;;8.20;7.40;;;;;;;;;;5096232;28;20596;-82
2021/04/19 05:25:12;;;;;;;9.18;7.43;;;;;;;;;;5096636;28;20177;-82
2021/04/19 05:27:40;;;;;;;8.30;7.47;;;;;;;;;;5096882;28;20645;-84
2021/04/19 05:30:09;;;;;;;8.68;7.85;;;;;;;;;;5096599;28;20227;-82
2021/04/19 05:32:35;;;;;;;8.30;7.50;;;;;;;;;;5097026;28;20220;-82
2021/04/19 05:35:03;;;;;;;7.35;6.57;;;;;;;;;;5096793;28;20188;-82
2021/04/19 05:37:30;;;;;;;8.50;7.65;;;;;;;;;;5096272;28;20257;-82
2021/04/19 05:39:57;;;;;;;8.95;7.43;;;;;;;;;;5097348;28;20609;-82
2021/04/19 05:42:25;;;;;;;11.82;7.60;;;;;;;;;;5097042;28;20224;-82
2021/04/19 05:44:53;;;;;;;9.00;8.07;;;;;;;;;;5097020;28;20600;-82
2021/04/19 05:47:21;;;;;;;8.35;7.57;;;;;;;;;;5096590;28;20185;-82
2021/04/19 05:49:48;;;;;;;8.80;6.82;;;;;;;;;;5096737;28;20251;-83
2021/04/19 05:52:15;;;;;;;9.27;8.13;;;;;;;;;;5095897;28;20220;-82
2021/04/19 05:54:43;;;;;;;9.25;7.47;;;;;;;;;;5096942;28;20249;-83
2021/04/19 05:57:20;;;;;;;9.20;8.30;;;;;;;;;;5095933;28;20636;-83
2021/04/19 05:59:58;;;;;;;10.45;7.68;;;;;;;;;;5096800;28;20188;-83
2021/04/19 06:02:39;;;;;;;7.60;6.85;;;;;;;;;;5096372;28;20239;-83
2021/04/19 06:05:09;;;;;;;10.27;7.57;;;;;;;;;;5091085;28;20203;-82
2021/04/19 06:07:42;;;;;;;10.75;6.80;;;;;;;;;;5094529;28;20191;-83
2021/04/19 06:10:13;;;;;;;8.98;7.15;;;;;;;;;;5096046;28;20200;-82
2021/04/19 06:12:48;;;;;;;11.90;7.15;;;;;;;;;;5095973;28;20216;-83
2021/04/19 06:15:18;;;;;;;10.90;7.35;;;;;;;;;;5095908;28;20211;-83
2021/04/19 06:17:48;;;;;;;7.63;6.88;;;;;;;;;;5096241;28;20225;-83
2021/04/19 06:20:19;;;;;;;13.98;9.35;;;;;;;;;;5096235;28;20207;-83
2021/04/19 06:22:50;;;;;;;11.75;8.43;;;;;;;;;;5095827;28;20230;-82
2021/04/19 06:25:20;;;;;;;9.93;8.40;;;;;;;;;;5091908;28;20237;-82
2021/04/19 06:27:47;;;;;;;21.50;9.77;;;;;;;;;;5096253;28;20205;-82
2021/04/19 06:30:18;;;;;;;16.05;9.73;;;;;;;;;;5096069;28;20722;-83
2021/04/19 06:32:46;;;;;;;15.77;9.23;;;;;;;;;;5095624;28;20220;-82
2021/04/19 06:35:15;;;;;;;10.70;8.50;;;;;;;;;;5094605;28;20201;-84
2021/04/19 06:37:43;;;;;;;9.98;8.70;;;;;;;;;;5096948;28;20293;-84
2021/04/19 06:40:11;;;;;;;13.57;9.18;;;;;;;;;;5095990;28;20646;-84
2021/04/19 06:42:38;;;;;;;12.77;9.32;;;;;;;;;;5095947;28;20213;-84
2021/04/19 06:45:07;;;;;;;11.82;8.73;;;;;;;;;;5095369;28;20224;-84
2021/04/19 06:47:35;;;;;;;9.38;8.48;;;;;;;;;;5096547;28;20185;-84
2021/04/19 06:50:05;;;;;;;12.07;8.63;;;;;;;;;;5095972;28;20192;-84
2021/04/19 06:52:33;;;;;;;10.90;9.68;;;;;;;;;;5095857;28;20277;-84
2021/04/19 06:55:00;;;;;;;10.13;9.02;;;;;;;;;;5091251;28;20697;-84
2021/04/19 06:57:31;;;;;;;10.43;9.32;;;;;;;;;;5095954;28;20257;-84
2021/04/19 06:59:59;;;;;;;10.48;9.40;;;;;;;;;;5096553;28;20212;-84
2021/04/19 07:02:27;;;;;;;12.38;10.35;;;;;;;;;;5093956;28;20216;-84
2021/04/19 07:04:55;;;;;;;11.15;10.02;;;;;;;;;;5095426;28;20204;-83
2021/04/19 07:07:26;;;;;;;10.00;8.98;;;;;;;;;;5093715;28;20557;-83
2021/04/19 07:09:58;;;;;;;12.18;9.80;;;;;;;;;;5094322;28;20211;-84
2021/04/19 07:12:26;;;;;;;10.40;9.35;;;;;;;;;;5094686;28;20220;-84
2021/04/19 07:14:55;;;;;;;11.45;10.23;;;;;;;;;;5089016;28;20207;-84
2021/04/19 07:17:22;;;;;;;11.88;10.65;;;;;;;;;;5095045;28;20216;-84
2021/04/19 07:19:49;;;;;;;10.07;9.00;;;;;;;;;;5095170;28;20739;-84
2021/04/19 07:22:17;;;;;;;10.43;9.27;;;;;;;;;;5094712;28;20223;-83
2021/04/19 07:24:45;;;;;;;12.23;9.70;;;;;;;;;;5093090;28;20196;-83
2021/04/19 07:27:13;;;;;;;9.93;8.95;;;;;;;;;;5092829;28;20240;-83
2021/04/19 07:29:41;;;;;;;10.60;9.50;;;;;;;;;;5094087;28;20566;-83
2021/04/19 07:32:10;;;;;;;10.00;8.75;;;;;;;;;;5094487;28;20280;-83
2021/04/19 07:34:37;;;;;;;11.80;9.70;;;;;;;;;;5095266;28;20236;-84
2021/04/19 07:37:06;;;;;;;11.32;10.23;;;;;;;;;;5095010;28;20237;-84
2021/04/19 07:39:37;;;;;;;12.02;10.25;;;;;;;;;;5095266;28;20184;-84
2021/04/19 07:42:07;;;;;;;12.88;9.93;;;;;;;;;;5094479;28;20223;-84
2021/04/19 07:44:40;;;;;;;11.75;10.25;;;;;;;;;;5095020;28;20192;-83
2021/04/19 07:47:32;;;;;;;11.20;10.05;;;;;;;;;;5095388;28;20189;-84
2021/04/19 07:50:14;;;;;;;11.20;10.10;;;;;;;;;;5094915;28;20253;-84
2021/04/19 07:52:59;;;;;;;12.82;11.10;;;;;;;;;;5094119;28;20713;-84
2021/04/19 07:55:30;;;;;;;10.68;9.60;;;;;;;;;;5094688;28;20249;-84
2021/04/19 07:57:58;;;;;;;12.02;10.80;;;;;;;;;;5095533;28;20255;-84
2021/04/19 08:00:32;;;;;;;12.48;11.02;;;;;;;;;;5095329;28;20192;-84
2021/04/19 08:03:06;;;;;;;11.50;10.45;;;;;;;;;;5094370;28;20231;-82
2021/04/19 08:05:38;;;;;;;11.23;10.10;;;;;;;;;;5084094;28;20658;-82
2021/04/19 08:08:08;;;;;;;11.77;10.57;;;;;;;;;;5094209;28;20189;-83
2021/04/19 08:10:38;;;;;;;13.48;10.48;;;;;;;;;;5094479;28;20204;-83
2021/04/19 08:13:11;;;;;;;10.38;9.35;;;;;;;;;;5094924;28;20230;-83
2021/04/19 08:15:41;;;;;;;11.25;10.15;;;;;;;;;;5093526;28;20200;-83
2021/04/19 08:18:11;;;;;;;10.65;9.63;;;;;;;;;;5094362;28;20565;-83
2021/04/19 08:20:47;;;;;;;11.40;9.68;;;;;;;;;;5094693;28;20227;-83
2021/04/19 08:23:15;;;;;;;10.20;9.10;;;;;;;;;;5094877;28;20249;-83
2021/04/19 08:25:46;;;;;;;12.25;10.80;;;;;;;;;;5092433;28;20204;-83
2021/04/19 08:28:15;;;;;;;10.48;9.38;;;;;;;;;;5093751;28;20246;-82
2021/04/19 08:30:46;;;;;;;13.75;10.40;;;;;;;;;;5095354;28;20224;-82
2021/04/19 08:33:13;;;;;;;11.07;10.07;;;;;;;;;;5094599;28;20224;-83
2021/04/19 08:35:42;;;;;;;11.50;9.82;;;;;;;;;;5076500;28;20211;-83
2021/04/19 08:38:10;;;;;;;11.40;10.18;;;;;;;;;;5077984;28;20235;-83
2021/04/19 08:40:40;;;;;;;12.07;10.65;;;;;;;;;;5077991;28;20201;-83
2021/04/19 08:43:11;;;;;;;11.55;10.35;;;;;;;;;;5078518;28;20768;-83
2021/04/19 08:45:41;;;;;;;11.88;10.35;;;;;;;;;;5095704;28;20310;-83
2021/04/19 08:48:13;;;;;;;10.82;9.73;;;;;;;;;;5098141;28;20290;-83
2021/04/19 08:50:41;;;;;;;12.38;11.07;;;;;;;;;;5098823;28;20674;-83
2021/04/19 08:53:10;;;;;;;11.45;10.18;;;;;;;;;;5098149;28;20225;-83
2021/04/19 08:55:38;;;;;;;11.75;10.55;;;;;;;;;;5097058;28;20193;-83
2021/04/19 08:58:10;;;;;;;12.30;9.88;;;;;;;;;;5098287;28;20243;-84
2021/04/19 09:00:38;;;;;;;10.63;9.52;;;;;;;;;;5098628;28;20189;-83
2021/04/19 09:03:06;;;;;;;11.40;10.20;;;;;;;;;;5098315;28;20235;-83
2021/04/19 09:05:34;;;;;;;11.20;10.13;;;;;;;;;;5096536;28;20245;-83
2021/04/19 09:08:06;;;;;;;10.63;9.55;;;;;;;;;;5097822;28;20554;-83
2021/04/19 09:10:56;;;;;;;12.75;10.55;;;;;;;;;;5098850;28;20277;-83
2021/04/19 09:13:32;;;;;;;11.32;10.23;;;;;;;;;;5093837;28;20290;-82
2021/04/19 09:16:22;;;;;;;10.30;9.30;;;;;;;;;;5095225;28;20208;-84
2021/04/19 09:18:57;;;;;;;11.05;9.70;;;;;;;;;;5093562;28;20220;-83
2021/04/19 09:21:40;;;;;;;12.10;10.05;;;;;;;;;;5097951;28;20216;-84
2021/04/19 09:24:09;;;;;;;10.65;9.57;;;;;;;;;;5096083;28;20267;-83
2021/04/19 09:26:51;;;;;;;12.30;9.40;;;;;;;;;;5095280;28;20188;-83
2021/04/19 09:29:47;;;;;;;11.85;10.65;;;;;;;;;;5096106;28;20557;-83
2021/04/19 09:32:26;;;;;;;10.15;9.07;;;;;;;;;;5095992;28;20307;-83
2021/04/19 09:34:56;;;;;;;10.77;9.68;;;;;;;;;;5096161;28;20503;-83
2021/04/19 09:37:39;;;;;;;11.05;10.00;;;;;;;;;;5095443;28;20551;-83
2021/04/19 09:40:15;;;;;;;9.40;8.48;;;;;;;;;;5096030;28;20200;-83
2021/04/19 09:43:04;;;;;;;8.27;7.47;;;;;;;;;;5096390;28;20276;-83
2021/04/19 09:46:05;;;;;;;10.05;9.02;;;;;;;;;;5095669;28;20204;-84
2021/04/19 09:48:56;;;;;;;10.40;9.25;;;;;;;;;;5095398;28;20196;-84
2021/04/19 09:51:27;;;;;;;9.63;8.13;;;;;;;;;;5096186;28;20220;-84
2021/04/19 09:54:08;;;;;;;10.57;8.98;;;;;;;;;;5095578;28;20667;-84
2021/04/19 09:56:42;;;;;;;8.93;7.70;;;;;;;;;;5095866;28;20202;-84
2021/04/19 09:59:11;;;;;;;9.93;8.75;;;;;;;;;;5096106;28;20242;-84
2021/04/19 10:01:39;;;;;;;8.30;7.45;;;;;;;;;;5094537;28;20220;-84
2021/04/19 10:04:06;;;;;;;9.00;8.00;;;;;;;;;;5095530;28;20228;-84
2021/04/19 10:06:39;;;;;;;8.57;7.70;;;;;;;;;;5094514;28;20687;-83
2021/04/19 10:09:10;;;;;;;8.27;7.47;;;;;;;;;;5095206;28;20639;-84
2021/04/19 10:11:43;;;;;;;8.50;7.60;;;;;;;;;;5094953;28;20220;-83
2021/04/19 10:14:13;;;;;;;9.75;8.75;;;;;;;;;;5088962;28;20196;-83
2021/04/19 10:16:43;;;;;;;10.05;9.05;;;;;;;;;;5073618;28;20265;-83
2021/04/19 10:19:10;;;;;;;8.55;7.78;;;;;;;;;;5074944;28;20641;-83
2021/04/19 10:21:38;;;;;;;9.30;8.30;;;;;;;;;;5075065;28;20294;-84
2021/04/19 10:24:14;;;;;;;8.68;7.78;;;;;;;;;;5075287;28;20197;-83
2021/04/19 10:26:41;;;;;;;8.18;7.38;;;;;;;;;;5075192;28;20197;-83
2021/04/19 10:29:16;;;;;;;9.65;8.65;;;;;;;;;;5074412;28;20668;-84
2021/04/19 10:31:53;;;;;;;7.85;7.10;;;;;;;;;;5075038;28;20591;-84
2021/04/19 10:34:21;;;;;;;8.75;7.85;;;;;;;;;;5075516;28;20199;-84
2021/04/19 10:36:52;;;;;;;8.73;7.72;;;;;;;;;;5074533;28;20249;-84
2021/04/19 10:39:22;;;;;;;8.52;7.70;;;;;;;;;;5075124;28;20219;-83
2021/04/19 10:41:51;;;;;;;8.63;7.72;;;;;;;;;;5074443;28;20639;-84
2021/04/19 10:44:30;;;;;;;8.93;8.02;;;;;;;;;;5074882;28;20173;-84
2021/04/19 10:46:58;;;;;;;9.32;8.20;;;;;;;;;;5074889;28;20207;-84
2021/04/19 10:49:27;;;;;;;8.55;7.75;;;;;;;;;;5075234;28;20204;-83
2021/04/19 10:51:56;;;;;;;9.85;8.07;;;;;;;;;;5073445;28;20213;-84
2021/04/19 10:54:28;;;;;;;9.77;8.77;;;;;;;;;;5073395;28;20181;-84
2021/04/19 10:56:56;;;;;;;8.73;7.85;;;;;;;;;;5082474;28;20208;-84
2021/04/19 10:59:23;;;;;;;8.73;7.88;;;;;;;;;;5082116;28;20625;-84
2021/04/19 11:02:01;;;;;;;7.93;7.13;;;;;;;;;;5093915;28;20425;-84
2021/04/19 11:04:28;;;;;;;8.23;7.43;;;;;;;;;;5094910;28;20281;-84
2021/04/19 11:06:56;;;;;;;9.40;8.38;;;;;;;;;;5094986;28;20593;-84
2021/04/19 11:09:27;;;;;;;8.90;8.00;;;;;;;;;;5088030;28;20207;-83
2021/04/19 11:11:54;;;;;;;9.70;8.73;;;;;;;;;;5094548;28;20224;-84
2021/04/19 11:14:24;;;;;;;11.95;9.50;;;;;;;;;;5094707;28;20232;-84
2021/04/19 11:16:53;;;;;;;9.13;8.20;;;;;;;;;;5094023;28;20570;-84
2021/04/19 11:19:36;;;;;;;9.38;8.40;;;;;;;;;;5094971;28;20706;-84
2021/04/19 11:22:26;;;;;;;9.55;8.60;;;;;;;;;;5093132;28;20350;-85
2021/04/19 11:24:54;;;;;;;7.97;7.25;;;;;;;;;;5093968;28;20212;-84
2021/04/19 11:27:26;;;;;;;9.00;7.70;;;;;;;;;;5094122;28;20215;-84
2021/04/19 11:29:54;;;;;;;9.13;8.15;;;;;;;;;;5094478;28;20287;-84
2021/04/19 11:32:33;;;;;;;9.20;8.32;;;;;;;;;;5094793;28;20235;-84
2021/04/19 11:35:02;;;;;;;9.40;8.48;;;;;;;;;;5094926;28;20678;-83
2021/04/19 11:37:35;;;;;;;8.77;7.97;;;;;;;;;;5095718;28;20197;-84
2021/04/19 11:40:04;;;;;;;8.60;6.78;;;;;;;;;;5094909;28;20208;-84
2021/04/19 11:42:36;;;;;;;8.73;7.22;;;;;;;;;;5094771;28;20224;-84
2021/04/19 11:45:05;;;;;;;7.68;6.93;;;;;;;;;;5094401;28;20184;-84
2021/04/19 11:47:34;;;;;;;8.77;7.97;;;;;;;;;;5095278;28;20181;-85
2021/04/19 11:50:01;;;;;;;8.05;7.22;;;;;;;;;;5094970;28;20200;-84
2021/04/19 11:52:28;;;;;;;7.07;6.43;;;;;;;;;;5095566;28;20766;-84
2021/04/19 11:54:55;;;;;;;8.38;7.55;;;;;;;;;;5095140;28;20268;-84
2021/04/19 11:57:22;;;;;;;7.47;6.68;;;;;;;;;;5094502;28;20210;-84
2021/04/19 11:59:49;;;;;;;8.75;7.90;;;;;;;;;;5093881;28;20220;-84
2021/04/19 12:02:16;;;;;;;9.20;8.30;;;;;;;;;;5093850;28;20273;-83
2021/04/19 12:04:43;;;;;;;7.10;6.50;;;;;;;;;;5094690;28;20200;-83
2021/04/19 12:07:11;;;;;;;7.50;6.70;;;;;;;;;;5094640;28;20192;-84
2021/04/19 12:09:38;;;;;;;8.82;7.45;;;;;;;;;;5094415;28;20627;-84
2021/04/19 12:12:06;;;;;;;7.38;6.68;;;;;;;;;;5093910;28;20270;-83
2021/04/19 12:14:33;;;;;;;6.90;6.30;;;;;;;;;;5092939;28;20200;-83
2021/04/19 12:17:00;;;;;;;8.35;7.50;;;;;;;;;;5093453;28;20661;-83
2021/04/19 12:19:27;;;;;;;10.32;7.28;;;;;;;;;;5092958;28;20220;-83
2021/04/19 12:21:54;;;;;;;8.07;7.07;;;;;;;;;;5093256;28;20220;-83
2021/04/19 12:24:21;;;;;;;8.23;6.22;;;;;;;;;;5092523;28;20208;-83
2021/04/19 12:26:48;;;;;;;8.10;7.05;;;;;;;;;;5092668;28;20226;-83
2021/04/19 12:29:15;;;;;;;7.35;6.65;;;;;;;;;;5092829;28;20200;-83
2021/04/19 12:31:42;;;;;;;7.45;6.75;;;;;;;;;;5092382;28;20220;-82
2021/04/19 12:34:09;;;;;;;7.80;7.10;;;;;;;;;;5092666;28;20180;-83
2021/04/19 12:36:36;;;;;;;7.68;6.88;;;;;;;;;;5093109;28;20196;-82
2021/04/19 12:39:04;;;;;;;7.78;6.97;;;;;;;;;;5092858;28;20224;-83
2021/04/19 12:41:32;;;;;;;8.05;7.10;;;;;;;;;;5093790;28;20223;-83
2021/04/19 12:43:59;;;;;;;5.72;5.22;;;;;;;;;;5093425;28;20838;-83
2021/04/19 12:46:27;;;;;;;8.32;7.07;;;;;;;;;;5091477;28;20580;-82
2021/04/19 12:48:54;;;;;;;8.93;7.10;;;;;;;;;;5093033;28;20197;-83
2021/04/19 12:51:22;;;;;;;7.15;6.45;;;;;;;;;;5093726;28;20216;-83
2021/04/19 12:53:49;;;;;;;7.45;6.35;;;;;;;;;;5094674;28;20651;-83
2021/04/19 12:56:16;;;;;;;7.90;7.10;;;;;;;;;;5094082;28;20188;-82
2021/04/19 12:58:44;;;;;;;6.97;6.28;;;;;;;;;;5093071;28;20184;-83
2021/04/19 13:01:11;;;;;;;6.18;5.57;;;;;;;;;;5093207;28;20265;-83
2021/04/19 13:03:39;;;;;;;7.78;7.07;;;;;;;;;;5093619;28;20239;-83
2021/04/19 13:06:07;;;;;;;7.03;6.43;;;;;;;;;;5092935;28;20632;-83
2021/04/19 13:08:34;;;;;;;6.65;6.03;;;;;;;;;;5081336;28;20592;-83
2021/04/19 13:11:01;;;;;;;12.02;7.60;;;;;;;;;;5083212;28;20201;-83
2021/04/19 13:13:28;;;;;;;7.35;6.18;;;;;;;;;;5080950;28;20201;-83
2021/04/19 13:15:56;;;;;;;8.45;7.65;;;;;;;;;;5081342;28;20212;-82
2021/04/19 13:18:23;;;;;;;6.45;5.78;;;;;;;;;;5079836;28;20205;-83
2021/04/19 13:20:49;;;;;;;6.70;6.10;;;;;;;;;;5089099;28;20464;-83
2021/04/19 13:23:16;;;;;;;6.68;5.53;;;;;;;;;;5095882;28;20235;-83
2021/04/19 13:25:43;;;;;;;5.72;5.22;;;;;;;;;;5104323;28;20211;-83
2021/04/19 13:28:10;;;;;;;5.82;5.32;;;;;;;;;;5105823;28;20211;-83
2021/04/19 13:30:38;;;;;;;6.00;5.50;;;;;;;;;;5102818;28;20196;-82
2021/04/19 13:33:06;;;;;;;5.93;5.40;;;;;;;;;;5103993;28;20220;-83
2021/04/19 13:35:33;;;;;;;5.75;5.20;;;;;;;;;;5105173;28;20200;-83
2021/04/19 13:37:59;;;;;;;6.70;6.07;;;;;;;;;;5105667;28;20230;-83
2021/04/19 13:40:26;;;;;;;6.57;5.97;;;;;;;;;;5105224;28;20220;-83
2021/04/19 13:42:53;;;;;;;6.47;5.93;;;;;;;;;;5104288;28;20231;-83
2021/04/19 13:45:22;;;;;;;6.53;5.90;;;;;;;;;;5100858;28;20204;-83
2021/04/19 13:47:49;;;;;;;5.68;5.22;;;;;;;;;;5095780;28;20204;-82
2021/04/19 13:50:19;;;;;;;7.68;6.97;;;;;;;;;;5093037;28;20207;-83
2021/04/19 13:52:46;;;;;;;7.18;5.97;;;;;;;;;;5093228;28;20220;-83
2021/04/19 13:55:15;;;;;;;5.47;4.97;;;;;;;;;;5092800;28;20234;-83
2021/04/19 13:57:42;;;;;;;5.78;5.28;;;;;;;;;;5092999;28;20207;-83
2021/04/19 14:00:12;;;;;;;6.07;5.57;;;;;;;;;;5092619;28;20232;-83
2021/04/19 14:02:40;;;;;;;6.25;5.65;;;;;;;;;;5092787;28;20289;-83
2021/04/19 14:05:09;;;;;;;5.70;5.20;;;;;;;;;;5092191;28;20192;-83
2021/04/19 14:07:36;;;;;;;6.18;5.53;;;;;;;;;;5092608;28;20204;-82
2021/04/19 14:10:04;;;;;;;7.10;6.47;;;;;;;;;;5091539;28;20200;-83
2021/04/19 14:12:33;;;;;;;6.97;6.30;;;;;;;;;;5091277;28;20745;-83
2021/04/19 14:15:00;;;;;;;7.03;6.32;;;;;;;;;;5092769;28;20258;-83
2021/04/19 14:17:27;;;;;;;6.03;5.40;;;;;;;;;;5092879;28;20200;-83
2021/04/19 14:19:54;;;;;;;6.22;5.63;;;;;;;;;;5091775;28;20616;-83
2021/04/19 14:22:21;;;;;;;6.65;6.05;;;;;;;;;;5092238;28;20242;-83
2021/04/19 14:24:48;;;;;;;6.38;5.78;;;;;;;;;;5092344;28;20702;-83
2021/04/19 14:27:15;;;;;;;6.25;5.75;;;;;;;;;;5091303;28;20196;-83
2021/04/19 14:29:42;;;;;;;7.00;6.30;;;;;;;;;;5092260;28;20200;-83
2021/04/19 14:32:09;;;;;;;7.30;6.20;;;;;;;;;;5092234;28;20317;-83
2021/04/19 14:34:36;;;;;;;5.75;5.25;;;;;;;;;;5091148;28;20286;-83
2021/04/19 14:37:04;;;;;;;8.38;7.57;;;;;;;;;;5091639;28;20200;-83
2021/04/19 14:39:31;;;;;;;6.88;6.28;;;;;;;;;;5092238;28;20224;-83
2021/04/19 14:41:59;;;;;;;6.90;6.25;;;;;;;;;;5091837;28;20224;-83
2021/04/19 14:44:27;;;;;;;7.20;6.50;;;;;;;;;;5092130;28;20682;-83
2021/04/19 14:46:54;;;;;;;5.97;5.47;;;;;;;;;;5092031;28;20286;-83
2021/04/19 14:49:22;;;;;;;8.00;7.20;;;;;;;;;;5091927;28;20192;-83
2021/04/19 14:51:49;;;;;;;7.35;6.65;;;;;;;;;;5093035;28;20738;-82
2021/04/19 14:54:16;;;;;;;6.30;5.70;;;;;;;;;;5092659;28;20253;-83